createdAt,value
2018-02-24T00:00:09.618Z,10.70
2018-02-24T00:01:10.025Z,10.40
2018-02-24T00:01:59.685Z,10.70
2018-02-24T00:02:59.650Z,10.70
2018-02-24T00:04:10.104Z,10.40
2018-02-24T00:04:59.578Z,10.70
2018-02-24T00:05:59.558Z,10.90
2018-02-24T00:07:09.574Z,10.80
2018-02-24T00:08:11.594Z,10.60
2018-02-24T00:08:59.426Z,10.60
2018-02-24T00:09:59.413Z,11.10
2018-02-24T00:11:10.642Z,10.00
2018-02-24T00:11:59.316Z,10.80
2018-02-24T00:12:59.280Z,9.60
2018-02-24T00:14:09.743Z,9.60
2018-02-24T00:14:59.202Z,10.60
2018-02-24T00:16:10.138Z,10.40
2018-02-24T00:16:59.127Z,11.00
2018-02-24T00:18:09.202Z,9.70
2018-02-24T00:19:10.274Z,10.20
2018-02-24T00:19:59.014Z,10.80
2018-02-24T00:21:09.458Z,10.10
2018-02-24T00:21:58.986Z,11.60
2018-02-24T00:23:10.413Z,9.70
2018-02-24T00:23:58.869Z,9.30
2018-02-24T00:25:09.354Z,9.60
2018-02-24T00:26:09.786Z,10.00
2018-02-24T00:27:10.405Z,11.20
2018-02-24T00:27:58.715Z,10.50
2018-02-24T00:29:09.016Z,14.60
2018-02-24T00:30:08.997Z,10.10
2018-02-24T00:30:58.595Z,10.50
2018-02-24T00:32:08.939Z,11.80
2018-02-24T00:32:58.566Z,10.80
2018-02-24T00:34:08.966Z,13.70
2018-02-24T00:34:58.468Z,10.50
2018-02-24T00:35:58.415Z,12.00
2018-02-24T00:36:58.371Z,10.00
2018-02-24T00:38:08.942Z,9.80
2018-02-24T00:39:09.502Z,11.70
2018-02-24T00:40:09.471Z,10.10
2018-02-24T00:40:58.224Z,10.00
2018-02-24T00:41:58.195Z,9.80
2018-02-24T00:42:58.152Z,9.40
2018-02-24T00:43:58.146Z,10.50
2018-02-24T00:45:08.731Z,10.50
2018-02-24T00:46:09.552Z,11.00
2018-02-24T00:47:08.195Z,9.60
2018-02-24T00:48:08.108Z,10.30
2018-02-24T00:48:57.936Z,11.00
2018-02-24T00:49:57.932Z,11.20
2018-02-24T00:51:08.631Z,10.50
2018-02-24T00:51:57.815Z,11.20
2018-02-24T00:52:57.773Z,11.40
2018-02-24T00:53:57.753Z,10.30
2018-02-24T00:54:57.699Z,10.60
2018-02-24T00:55:57.695Z,9.30
2018-02-24T00:56:57.629Z,9.70
2018-02-24T00:58:08.139Z,9.80
2018-02-24T00:58:57.548Z,11.00
2018-02-24T00:59:57.537Z,10.40
2018-02-24T01:00:57.476Z,10.50
2018-02-24T01:01:57.463Z,10.70
2018-02-24T01:02:57.398Z,11.00
2018-02-24T01:03:57.363Z,10.50
2018-02-24T01:04:57.326Z,10.70
2018-02-24T01:05:57.289Z,10.20
2018-02-24T01:06:57.283Z,10.30
2018-02-24T01:07:57.220Z,11.80
2018-02-24T01:08:57.186Z,10.40
2018-02-24T01:09:57.168Z,10.10
2018-02-24T01:10:57.101Z,10.10
2018-02-24T01:11:57.072Z,9.90
2018-02-24T01:12:57.072Z,12.20
2018-02-24T01:13:56.996Z,9.20
2018-02-24T01:14:56.956Z,10.20
2018-02-24T01:16:07.633Z,10.60
2018-02-24T01:17:06.183Z,9.50
2018-02-24T01:17:56.848Z,10.60
2018-02-24T01:18:56.833Z,10.90
2018-02-24T01:19:56.771Z,10.20
2018-02-24T01:20:56.742Z,10.30
2018-02-24T01:22:07.197Z,9.80
2018-02-24T01:23:06.793Z,10.20
2018-02-24T01:23:56.659Z,9.90
2018-02-24T01:24:56.613Z,10.20
2018-02-24T01:25:56.551Z,10.30
2018-02-24T01:26:56.515Z,9.90
2018-02-24T01:27:56.477Z,10.50
2018-02-24T01:28:56.443Z,10.40
2018-02-24T01:29:56.435Z,11.50
2018-02-24T01:30:56.370Z,10.80
2018-02-24T01:31:56.332Z,10.10
2018-02-24T01:33:07.734Z,10.60
2018-02-24T01:34:07.806Z,10.70
2018-02-24T01:34:56.250Z,10.50
2018-02-24T01:35:56.208Z,10.70
2018-02-24T01:36:56.142Z,10.40
2018-02-24T01:37:56.108Z,10.30
2018-02-24T01:38:56.145Z,9.90
2018-02-24T01:40:06.342Z,10.70
2018-02-24T01:41:06.795Z,10.90
2018-02-24T01:41:55.960Z,10.70
2018-02-24T01:42:55.925Z,10.50
2018-02-24T01:43:55.887Z,11.00
2018-02-24T01:44:55.996Z,9.90
2018-02-24T01:45:55.808Z,10.50
2018-02-24T01:46:55.808Z,10.90
2018-02-24T01:47:55.737Z,11.10
2018-02-24T01:48:55.717Z,10.10
2018-02-24T01:49:55.664Z,10.00
2018-02-24T01:50:55.651Z,11.40
2018-02-24T01:51:55.597Z,11.00
2018-02-24T01:52:55.575Z,10.50
2018-02-24T01:53:55.515Z,10.90
2018-02-24T01:55:05.891Z,10.50
2018-02-24T01:55:55.449Z,10.20
2018-02-24T01:56:55.407Z,10.90
2018-02-24T01:57:55.403Z,11.00
2018-02-24T01:59:05.910Z,10.50
2018-02-24T02:00:05.446Z,10.20
2018-02-24T02:00:55.265Z,10.80
2018-02-24T02:02:05.436Z,10.60
2018-02-24T02:03:05.927Z,10.30
2018-02-24T02:03:55.150Z,10.50
2018-02-24T02:04:55.111Z,10.40
2018-02-24T02:06:05.447Z,11.10
2018-02-24T02:06:55.040Z,10.70
2018-02-24T02:07:55.000Z,10.30
2018-02-24T02:08:54.989Z,10.90
2018-02-24T02:09:54.926Z,10.20
2018-02-24T02:10:54.891Z,10.50
2018-02-24T02:11:54.850Z,10.50
2018-02-24T02:12:54.814Z,11.30
2018-02-24T02:14:05.465Z,10.40
2018-02-24T02:14:54.736Z,10.40
2018-02-24T02:16:05.039Z,10.80
2018-02-24T02:16:54.665Z,11.10
2018-02-24T02:18:05.136Z,10.10
2018-02-24T02:18:54.587Z,10.70
2018-02-24T02:19:54.577Z,11.00
2018-02-24T02:20:54.523Z,11.30
2018-02-24T02:21:54.502Z,11.30
2018-02-24T02:22:54.442Z,10.30
2018-02-24T02:23:54.406Z,10.10
2018-02-24T02:24:54.391Z,10.60
2018-02-24T02:25:54.331Z,11.50
2018-02-24T02:26:54.294Z,10.60
2018-02-24T02:27:54.258Z,11.30
2018-02-24T02:28:54.220Z,11.10
2018-02-24T02:30:05.034Z,10.60
2018-02-24T02:30:54.148Z,10.90
2018-02-24T02:31:54.107Z,10.00
2018-02-24T02:32:54.081Z,10.70
2018-02-24T02:33:54.037Z,12.30
2018-02-24T02:34:54.021Z,11.00
2018-02-24T02:35:53.981Z,10.90
2018-02-24T02:36:53.926Z,10.70
2018-02-24T02:37:53.888Z,10.80
2018-02-24T02:38:53.849Z,10.70
2018-02-24T02:39:53.813Z,11.00
2018-02-24T02:40:53.806Z,10.40
2018-02-24T02:41:53.741Z,10.40
2018-02-24T02:42:53.704Z,10.80
2018-02-24T02:43:53.673Z,11.50
2018-02-24T02:44:53.654Z,10.20
2018-02-24T02:45:53.591Z,10.10
2018-02-24T02:46:53.579Z,10.50
2018-02-24T02:47:53.523Z,10.20
2018-02-24T02:48:53.482Z,11.50
2018-02-24T02:49:53.452Z,10.20
2018-02-24T02:50:53.412Z,10.80
2018-02-24T02:51:53.397Z,11.30
2018-02-24T02:52:53.336Z,10.30
2018-02-24T02:53:53.304Z,9.90
2018-02-24T02:54:53.266Z,10.70
2018-02-24T02:55:53.228Z,10.00
2018-02-24T02:56:53.192Z,10.20
2018-02-24T02:57:53.186Z,11.30
2018-02-24T02:58:53.114Z,11.20
2018-02-24T02:59:53.081Z,10.40
2018-02-24T03:00:53.066Z,10.50
2018-02-24T03:01:53.007Z,10.60
2018-02-24T03:02:52.971Z,11.40
2018-02-24T03:04:02.220Z,10.00
2018-02-24T03:04:52.898Z,10.10
2018-02-24T03:05:52.889Z,11.20
2018-02-24T03:06:52.821Z,10.80
2018-02-24T03:07:52.793Z,10.30
2018-02-24T03:08:52.749Z,10.50
2018-02-24T03:09:52.731Z,10.50
2018-02-24T03:11:03.588Z,10.60
2018-02-24T03:11:52.640Z,11.00
2018-02-24T03:12:52.602Z,10.60
2018-02-24T03:13:52.566Z,10.80
2018-02-24T03:14:52.530Z,10.90
2018-02-24T03:15:52.496Z,11.20
2018-02-24T03:16:52.494Z,10.90
2018-02-24T03:17:52.417Z,10.60
2018-02-24T03:18:52.384Z,10.20
2018-02-24T03:19:52.349Z,10.60
2018-02-24T03:20:52.314Z,10.50
2018-02-24T03:22:03.114Z,10.90
2018-02-24T03:22:52.236Z,10.80
2018-02-24T03:23:52.206Z,10.60
2018-02-24T03:24:52.185Z,11.10
2018-02-24T03:25:52.143Z,10.80
2018-02-24T03:26:52.091Z,10.20
2018-02-24T03:27:52.078Z,10.70
2018-02-24T03:28:52.014Z,11.30
2018-02-24T03:29:51.980Z,11.00
2018-02-24T03:30:51.947Z,11.10
2018-02-24T03:31:51.910Z,10.70
2018-02-24T03:32:52.104Z,11.00
2018-02-24T03:33:51.828Z,9.80
2018-02-24T03:34:51.800Z,10.90
2018-02-24T03:35:51.758Z,10.80
2018-02-24T03:36:51.726Z,11.50
2018-02-24T03:37:51.686Z,10.80
2018-02-24T03:38:51.872Z,10.70
2018-02-24T03:39:51.615Z,11.20
2018-02-24T03:40:51.575Z,11.50
2018-02-24T03:41:51.537Z,11.20
2018-02-24T03:42:51.722Z,10.70
2018-02-24T03:43:51.470Z,10.60
2018-02-24T03:44:51.431Z,11.10
2018-02-24T03:45:51.416Z,10.50
2018-02-24T03:46:51.354Z,10.70
2018-02-24T03:47:51.321Z,11.00
2018-02-24T03:48:51.315Z,10.80
2018-02-24T03:49:51.250Z,11.20
2018-02-24T03:50:51.227Z,11.00
2018-02-24T03:51:51.172Z,11.70
2018-02-24T03:52:51.140Z,11.20
2018-02-24T03:53:51.097Z,11.10
2018-02-24T03:54:51.085Z,11.10
2018-02-24T03:55:51.029Z,11.20
2018-02-24T03:56:50.995Z,10.90
2018-02-24T03:57:50.951Z,10.00
2018-02-24T03:58:50.919Z,10.80
2018-02-24T03:59:50.901Z,10.00
2018-02-24T04:00:50.843Z,11.20
2018-02-24T04:01:50.807Z,16.50
2018-02-24T04:02:50.771Z,11.70
2018-02-24T04:03:50.740Z,11.20
2018-02-24T04:04:50.733Z,11.70
2018-02-24T04:05:50.661Z,10.80
2018-02-24T04:06:50.630Z,11.00
2018-02-24T04:07:50.584Z,10.50
2018-02-24T04:08:50.554Z,10.70
2018-02-24T04:09:50.533Z,10.50
2018-02-24T04:11:01.198Z,11.20
2018-02-24T04:11:50.440Z,10.70
2018-02-24T04:13:00.694Z,11.30
2018-02-24T04:14:00.775Z,11.30
2018-02-24T04:14:50.368Z,11.30
2018-02-24T04:15:50.297Z,10.80
2018-02-24T04:16:50.284Z,11.20
2018-02-24T04:17:50.220Z,11.50
2018-02-24T04:18:50.202Z,10.10
2018-02-24T04:19:50.145Z,11.30
2018-02-24T04:20:50.113Z,11.20
2018-02-24T04:21:50.108Z,10.50
2018-02-24T04:22:50.040Z,10.50
2018-02-24T04:24:00.221Z,10.00
2018-02-24T04:24:49.962Z,10.70
2018-02-24T04:25:49.959Z,11.20
2018-02-24T04:26:49.891Z,11.50
2018-02-24T04:27:49.872Z,11.30
2018-02-24T04:28:49.817Z,10.30
2018-02-24T04:29:49.783Z,11.70
2018-02-24T04:30:49.744Z,11.40
2018-02-24T04:31:49.704Z,10.30
2018-02-24T04:32:49.698Z,10.50
2018-02-24T04:33:49.636Z,11.50
2018-02-24T04:34:49.600Z,10.50
2018-02-24T04:35:49.583Z,10.60
2018-02-24T04:36:49.525Z,11.10
2018-02-24T04:37:49.483Z,11.20
2018-02-24T04:38:49.471Z,11.10
2018-02-24T04:39:49.410Z,10.70
2018-02-24T04:40:49.375Z,11.40
2018-02-24T04:41:49.342Z,11.60
2018-02-24T04:42:49.301Z,11.00
2018-02-24T04:43:49.298Z,11.10
2018-02-24T04:44:49.254Z,11.10
2018-02-24T04:45:49.194Z,10.70
2018-02-24T04:46:49.158Z,11.40
2018-02-24T04:47:49.118Z,12.60
2018-02-24T04:49:00.782Z,11.50
2018-02-24T04:49:49.065Z,11.30
2018-02-24T04:50:59.294Z,14.40
2018-02-24T04:51:48.974Z,10.90
2018-02-24T04:52:48.934Z,11.10
2018-02-24T04:53:48.902Z,11.60
2018-02-24T04:54:48.900Z,11.20
2018-02-24T04:55:48.844Z,11.50
2018-02-24T04:56:48.790Z,11.20
2018-02-24T04:57:48.750Z,12.00
2018-02-24T04:58:48.719Z,10.80
2018-02-24T04:59:48.682Z,11.10
2018-02-24T05:00:58.381Z,10.60
2018-02-24T05:01:58.807Z,12.20
2018-02-24T05:02:59.845Z,11.10
2018-02-24T05:03:58.867Z,11.70
2018-02-24T05:04:58.877Z,11.00
2018-02-24T05:05:57.047Z,10.90
2018-02-24T05:07:00.030Z,11.20
2018-02-24T05:07:59.539Z,11.00
2018-02-24T05:08:58.582Z,11.40
2018-02-24T05:09:58.545Z,10.70
2018-02-24T05:10:58.596Z,10.80
2018-02-24T05:11:48.266Z,11.90
2018-02-24T05:12:58.605Z,11.40
2018-02-24T05:13:58.673Z,12.00
2018-02-24T05:14:58.641Z,11.40
2018-02-24T05:15:58.711Z,11.80
2018-02-24T05:16:48.087Z,11.10
2018-02-24T05:17:48.010Z,11.00
2018-02-24T05:18:58.208Z,10.90
2018-02-24T05:19:58.735Z,10.80
2018-02-24T05:20:58.253Z,11.10
2018-02-24T05:21:58.693Z,11.90
2018-02-24T05:22:47.818Z,12.00
2018-02-24T05:23:58.346Z,11.60
2018-02-24T05:24:47.739Z,11.50
2018-02-24T05:25:47.707Z,10.10
2018-02-24T05:26:47.663Z,11.10
2018-02-24T05:27:47.683Z,12.50
2018-02-24T05:28:47.588Z,11.70
2018-02-24T05:29:47.552Z,11.60
2018-02-24T05:30:56.837Z,11.20
2018-02-24T05:31:57.788Z,12.10
2018-02-24T05:32:47.486Z,11.40
2018-02-24T05:33:58.295Z,11.10
2018-02-24T05:34:58.868Z,11.20
2018-02-24T05:35:58.857Z,11.50
2018-02-24T05:36:58.371Z,11.10
2018-02-24T05:37:47.260Z,11.10
2018-02-24T05:38:47.241Z,11.60
2018-02-24T05:39:56.412Z,10.70
2018-02-24T05:40:47.139Z,11.20
2018-02-24T05:41:47.107Z,11.80
2018-02-24T05:42:57.513Z,11.70
2018-02-24T05:43:47.077Z,11.80
2018-02-24T05:44:57.603Z,11.20
2018-02-24T05:45:46.948Z,11.00
2018-02-24T05:46:46.921Z,11.50
2018-02-24T05:47:46.879Z,11.50
2018-02-24T05:48:57.575Z,11.30
2018-02-24T05:49:46.807Z,11.60
2018-02-24T05:50:46.769Z,11.60
2018-02-24T05:51:57.991Z,11.90
2018-02-24T05:52:46.693Z,11.10
2018-02-24T05:53:46.654Z,11.40
2018-02-24T05:54:56.545Z,11.00
2018-02-24T05:55:46.581Z,11.60
2018-02-24T05:56:46.580Z,12.40
2018-02-24T05:57:56.551Z,11.70
2018-02-24T05:58:56.674Z,11.60
2018-02-24T05:59:56.224Z,11.50
2018-02-24T06:00:56.643Z,13.10
2018-02-24T06:01:56.753Z,12.30
2018-02-24T06:02:46.316Z,11.60
2018-02-24T06:03:46.281Z,11.40
2018-02-24T06:04:56.885Z,12.00
2018-02-24T06:05:46.232Z,11.10
2018-02-24T06:06:46.166Z,11.40
2018-02-24T06:07:46.131Z,12.10
2018-02-24T06:08:57.245Z,12.70
2018-02-24T06:09:56.294Z,11.50
2018-02-24T06:10:46.057Z,11.30
2018-02-24T06:11:45.978Z,13.10
2018-02-24T06:12:56.246Z,11.90
2018-02-24T06:13:45.908Z,11.80
2018-02-24T06:14:45.896Z,12.10
2018-02-24T06:15:55.881Z,12.50
2018-02-24T06:16:45.788Z,12.30
2018-02-24T06:17:45.757Z,11.60
2018-02-24T06:18:55.939Z,11.50
2018-02-24T06:19:45.675Z,12.30
2018-02-24T06:20:45.678Z,11.70
2018-02-24T06:21:45.624Z,11.70
2018-02-24T06:22:45.577Z,11.40
2018-02-24T06:23:55.836Z,12.40
2018-02-24T06:24:56.952Z,11.90
2018-02-24T06:25:45.455Z,12.70
2018-02-24T06:26:45.454Z,11.60
2018-02-24T06:27:45.382Z,11.80
2018-02-24T06:28:55.928Z,12.20
2018-02-24T06:29:55.436Z,10.80
2018-02-24T06:30:55.965Z,12.40
2018-02-24T06:31:45.233Z,11.20
2018-02-24T06:32:45.213Z,12.20
2018-02-24T06:33:45.154Z,11.80
2018-02-24T06:34:55.446Z,12.10
2018-02-24T06:35:45.090Z,12.00
2018-02-24T06:36:45.042Z,11.30
2018-02-24T06:37:57.005Z,11.00
2018-02-24T06:38:55.464Z,12.10
2018-02-24T06:39:56.041Z,13.00
2018-02-24T06:40:44.928Z,11.50
2018-02-24T06:41:44.859Z,11.50
2018-02-24T06:42:44.827Z,11.40
2018-02-24T06:43:44.812Z,11.00
2018-02-24T06:44:55.052Z,11.70
2018-02-24T06:45:44.708Z,11.80
2018-02-24T06:46:44.680Z,10.90
2018-02-24T06:47:55.155Z,11.60
2018-02-24T06:48:44.669Z,11.10
2018-02-24T06:49:44.583Z,11.00
2018-02-24T06:50:44.523Z,10.90
2018-02-24T06:51:44.483Z,12.00
2018-02-24T06:52:44.495Z,10.70
2018-02-24T06:53:44.412Z,11.30
2018-02-24T06:54:44.446Z,17.40
2018-02-24T06:55:44.341Z,12.30
2018-02-24T06:56:44.299Z,11.60
2018-02-24T06:57:44.258Z,12.00
2018-02-24T06:58:44.232Z,11.70
2018-02-24T06:59:44.211Z,12.70
2018-02-24T07:00:44.214Z,12.60
2018-02-24T07:01:44.112Z,14.10
2018-02-24T07:02:54.571Z,13.90
2018-02-24T07:03:44.050Z,13.20
2018-02-24T07:04:44.005Z,12.30
2018-02-24T07:05:44.005Z,14.70
2018-02-24T07:06:43.927Z,14.60
2018-02-24T07:07:43.902Z,13.30
2018-02-24T07:08:43.853Z,13.40
2018-02-24T07:09:43.852Z,13.90
2018-02-24T07:10:43.789Z,14.50
2018-02-24T07:11:43.747Z,14.30
2018-02-24T07:12:43.712Z,14.80
2018-02-24T07:13:54.147Z,13.90
2018-02-24T07:14:43.666Z,14.50
2018-02-24T07:15:43.608Z,13.90
2018-02-24T07:16:43.566Z,15.40
2018-02-24T07:17:43.578Z,15.70
2018-02-24T07:18:43.486Z,15.80
2018-02-24T07:19:43.486Z,15.80
2018-02-24T07:20:53.625Z,15.70
2018-02-24T07:21:43.377Z,15.60
2018-02-24T07:22:54.133Z,14.90
2018-02-24T07:23:53.735Z,15.80
2018-02-24T07:24:43.263Z,16.10
2018-02-24T07:25:43.231Z,14.30
2018-02-24T07:26:43.195Z,15.60
2018-02-24T07:27:43.278Z,16.90
2018-02-24T07:28:43.153Z,14.70
2018-02-24T07:29:53.281Z,14.70
2018-02-24T07:30:53.261Z,15.30
2018-02-24T07:31:43.017Z,14.30
2018-02-24T07:32:53.263Z,14.50
2018-02-24T07:33:53.755Z,13.90
2018-02-24T07:34:53.393Z,14.90
2018-02-24T07:35:54.035Z,14.10
2018-02-24T07:36:42.822Z,13.50
2018-02-24T07:37:42.789Z,14.60
2018-02-24T07:38:52.843Z,14.20
2018-02-24T07:39:42.736Z,14.00
2018-02-24T07:40:42.669Z,13.90
2018-02-24T07:41:52.934Z,14.10
2018-02-24T07:42:51.859Z,14.30
2018-02-24T07:43:52.989Z,15.00
2018-02-24T07:44:42.571Z,13.70
2018-02-24T07:45:42.508Z,13.70
2018-02-24T07:46:52.067Z,14.40
2018-02-24T07:47:42.412Z,13.50
2018-02-24T07:48:42.369Z,12.70
2018-02-24T07:49:55.100Z,14.40
2018-02-24T07:50:52.557Z,13.50
2018-02-24T07:51:42.263Z,13.40
2018-02-24T07:52:42.221Z,13.80
2018-02-24T07:53:52.619Z,13.80
2018-02-24T07:54:42.146Z,12.30
2018-02-24T07:55:53.017Z,12.50
2018-02-24T07:56:42.076Z,13.50
2018-02-24T07:57:42.032Z,13.30
2018-02-24T07:58:52.119Z,13.70
2018-02-24T07:59:41.959Z,13.90
2018-02-24T08:00:52.699Z,13.00
2018-02-24T08:01:41.889Z,12.80
2018-02-24T08:02:52.169Z,13.00
2018-02-24T08:03:41.813Z,12.10
2018-02-24T08:04:41.810Z,13.10
2018-02-24T08:05:41.740Z,12.80
2018-02-24T08:06:41.728Z,13.80
2018-02-24T08:07:41.692Z,13.00
2018-02-24T08:08:41.629Z,12.30
2018-02-24T08:09:41.586Z,12.20
2018-02-24T08:10:41.552Z,12.80
2018-02-24T08:11:41.544Z,11.90
2018-02-24T08:12:41.476Z,12.70
2018-02-24T08:13:51.715Z,12.90
2018-02-24T08:14:51.697Z,12.20
2018-02-24T08:15:51.758Z,12.40
2018-02-24T08:16:51.181Z,12.70
2018-02-24T08:17:51.725Z,11.30
2018-02-24T08:18:51.769Z,12.10
2018-02-24T08:19:51.381Z,12.20
2018-02-24T08:20:41.902Z,12.50
2018-02-24T08:21:51.874Z,11.60
2018-02-24T08:22:41.126Z,12.30
2018-02-24T08:23:41.068Z,11.70
2018-02-24T08:24:41.908Z,11.70
2018-02-24T08:25:40.991Z,12.50
2018-02-24T08:26:52.458Z,13.50
2018-02-24T08:27:40.948Z,12.00
2018-02-24T08:28:52.314Z,13.00
2018-02-24T08:29:51.348Z,13.10
2018-02-24T08:30:50.894Z,12.60
2018-02-24T08:31:51.072Z,17.30
2018-02-24T08:32:51.524Z,14.70
2018-02-24T08:33:51.063Z,14.10
2018-02-24T08:34:40.653Z,22.60
2018-02-24T08:35:51.081Z,14.30
2018-02-24T08:36:40.621Z,16.20
2018-02-24T08:37:52.677Z,14.20
2018-02-24T08:38:40.516Z,17.10
2018-02-24T08:39:50.573Z,14.70
2018-02-24T08:40:51.780Z,12.70
2018-02-24T08:41:40.398Z,16.50
2018-02-24T08:42:50.693Z,14.50
2018-02-24T08:43:40.356Z,15.10
2018-02-24T08:44:50.754Z,18.00
2018-02-24T08:45:53.586Z,11.70
2018-02-24T08:46:51.415Z,12.70
2018-02-24T08:47:40.170Z,20.60
2018-02-24T08:48:50.015Z,14.80
2018-02-24T08:49:40.090Z,11.70
2018-02-24T08:50:50.290Z,14.00
2018-02-24T08:51:50.272Z,12.10
2018-02-24T08:52:50.367Z,13.70
2018-02-24T08:53:39.941Z,18.70
2018-02-24T08:54:40.087Z,15.50
2018-02-24T08:55:39.881Z,12.90
2018-02-24T08:56:39.829Z,14.60
2018-02-24T08:57:39.791Z,13.30
2018-02-24T08:58:51.289Z,14.30
2018-02-24T08:59:50.290Z,12.80
2018-02-24T09:00:48.937Z,13.30
2018-02-24T09:01:49.855Z,15.00
2018-02-24T09:02:39.605Z,13.30
2018-02-24T09:03:48.865Z,14.40
2018-02-24T09:04:50.962Z,12.30
2018-02-24T09:05:51.449Z,13.20
2018-02-24T09:06:39.459Z,12.10
2018-02-24T09:07:50.030Z,11.00
2018-02-24T09:08:50.579Z,14.10
2018-02-24T09:09:39.337Z,12.70
2018-02-24T09:10:52.180Z,13.50
2018-02-24T09:11:50.988Z,13.60
2018-02-24T09:12:49.631Z,15.50
2018-02-24T09:13:39.200Z,12.20
2018-02-24T09:14:39.156Z,14.10
2018-02-24T09:15:49.579Z,12.50
2018-02-24T09:16:50.115Z,12.80
2018-02-24T09:17:49.685Z,14.40
2018-02-24T09:18:50.225Z,13.60
2018-02-24T09:19:50.661Z,13.80
2018-02-24T09:20:49.324Z,12.00
2018-02-24T09:21:49.679Z,16.50
2018-02-24T09:22:38.889Z,14.10
2018-02-24T09:23:50.232Z,14.20
2018-02-24T09:24:50.351Z,13.00
2018-02-24T09:25:49.374Z,12.90
2018-02-24T09:26:49.015Z,12.20
2018-02-24T09:27:48.348Z,13.80
2018-02-24T09:28:48.852Z,12.90
2018-02-24T09:29:49.910Z,13.20
2018-02-24T09:30:48.895Z,12.60
2018-02-24T09:31:49.995Z,12.80
2018-02-24T09:32:49.387Z,12.70
2018-02-24T09:33:50.101Z,13.50
2018-02-24T09:34:49.001Z,11.80
2018-02-24T09:35:48.521Z,13.50
2018-02-24T09:36:38.347Z,15.20
2018-02-24T09:37:48.714Z,12.90
2018-02-24T09:38:49.010Z,11.80
2018-02-24T09:39:49.608Z,11.70
2018-02-24T09:40:38.167Z,12.40
2018-02-24T09:41:38.131Z,13.00
2018-02-24T09:42:48.553Z,12.30
2018-02-24T09:43:38.108Z,13.00
2018-02-24T09:44:38.023Z,13.40
2018-02-24T09:45:37.977Z,13.50
2018-02-24T09:46:37.966Z,13.40
2018-02-24T09:47:37.909Z,12.80
2018-02-24T09:48:37.869Z,17.50
2018-02-24T09:49:37.852Z,13.10
2018-02-24T09:50:37.790Z,12.60
2018-02-24T09:51:37.754Z,13.10
2018-02-24T09:52:37.715Z,16.00
2018-02-24T09:53:37.681Z,13.00
2018-02-24T09:54:37.674Z,13.30
2018-02-24T09:55:37.605Z,14.80
2018-02-24T09:56:37.596Z,13.70
2018-02-24T09:57:37.534Z,13.40
2018-02-24T09:58:37.496Z,14.10
2018-02-24T09:59:37.460Z,13.60
2018-02-24T10:00:37.441Z,14.10
2018-02-24T10:01:37.386Z,13.70
2018-02-24T10:02:37.346Z,11.80
2018-02-24T10:03:37.310Z,13.10
2018-02-24T10:04:37.276Z,12.40
2018-02-24T10:05:37.259Z,14.30
2018-02-24T10:06:37.198Z,14.40
2018-02-24T10:07:37.165Z,15.00
2018-02-24T10:08:37.126Z,15.20
2018-02-24T10:09:37.094Z,13.90
2018-02-24T10:10:37.051Z,15.20
2018-02-24T10:11:37.038Z,15.20
2018-02-24T10:12:36.983Z,14.80
2018-02-24T10:13:36.944Z,15.40
2018-02-24T10:14:36.906Z,14.20
2018-02-24T10:15:36.875Z,15.00
2018-02-24T10:16:36.857Z,15.60
2018-02-24T10:17:36.802Z,17.00
2018-02-24T10:18:36.757Z,15.50
2018-02-24T10:19:36.725Z,15.50
2018-02-24T10:20:36.691Z,15.00
2018-02-24T10:21:36.656Z,16.30
2018-02-24T10:22:36.653Z,15.40
2018-02-24T10:23:36.576Z,16.60
2018-02-24T10:24:36.547Z,15.60
2018-02-24T10:25:36.503Z,16.00
2018-02-24T10:26:36.470Z,15.30
2018-02-24T10:27:36.436Z,16.20
2018-02-24T10:28:36.470Z,15.50
2018-02-24T10:29:36.356Z,16.10
2018-02-24T10:30:36.319Z,13.80
2018-02-24T10:31:36.288Z,13.90
2018-02-24T10:32:36.247Z,13.80
2018-02-24T10:33:36.238Z,13.50
2018-02-24T10:34:36.176Z,16.00
2018-02-24T10:35:36.142Z,15.60
2018-02-24T10:36:36.106Z,16.00
2018-02-24T10:37:36.067Z,17.70
2018-02-24T10:38:36.028Z,16.30
2018-02-24T10:39:36.027Z,16.70
2018-02-24T10:40:35.960Z,15.30
2018-02-24T10:41:35.917Z,15.80
2018-02-24T10:42:35.885Z,17.00
2018-02-24T10:43:35.849Z,16.50
2018-02-24T10:44:35.810Z,16.80
2018-02-24T10:45:36.464Z,17.00
2018-02-24T10:46:35.741Z,17.50
2018-02-24T10:47:35.702Z,16.90
2018-02-24T10:48:46.185Z,15.90
2018-02-24T10:49:45.132Z,18.00
2018-02-24T10:50:46.637Z,16.80
2018-02-24T10:51:45.648Z,16.10
2018-02-24T10:52:35.515Z,17.60
2018-02-24T10:53:35.485Z,16.60
2018-02-24T10:54:35.448Z,17.80
2018-02-24T10:55:35.444Z,16.80
2018-02-24T10:56:35.371Z,16.40
2018-02-24T10:57:35.331Z,16.00
2018-02-24T10:58:35.296Z,16.70
2018-02-24T10:59:35.261Z,17.00
2018-02-24T11:00:35.225Z,17.40
2018-02-24T11:01:35.217Z,17.00
2018-02-24T11:02:35.147Z,16.80
2018-02-24T11:03:35.119Z,16.60
2018-02-24T11:04:35.077Z,16.50
2018-02-24T11:07:08.109Z,16.80
2018-02-24T11:08:08.017Z,17.40
2018-02-24T11:09:07.966Z,16.30
2018-02-24T11:10:07.931Z,16.90
2018-02-24T11:11:07.897Z,17.60
2018-02-24T11:12:07.898Z,15.60
2018-02-24T11:13:07.824Z,17.40
2018-02-24T11:14:07.790Z,17.00
2018-02-24T11:15:07.751Z,17.00
2018-02-24T11:16:07.716Z,16.60
2018-02-24T11:17:07.702Z,15.90
2018-02-24T11:18:07.678Z,16.70
2018-02-24T11:19:07.611Z,16.80
2018-02-24T11:20:17.735Z,17.50
2018-02-24T11:21:07.546Z,17.90
2018-02-24T11:22:18.267Z,16.50
2018-02-24T11:23:07.459Z,16.00
2018-02-24T11:24:07.454Z,16.40
2018-02-24T11:25:07.457Z,17.10
2018-02-24T11:26:17.791Z,17.70
2018-02-24T11:27:07.369Z,16.50
2018-02-24T11:28:07.331Z,15.60
2018-02-24T11:29:07.351Z,17.00
2018-02-24T11:30:07.874Z,17.40
2018-02-24T11:31:07.244Z,16.90
2018-02-24T11:32:07.517Z,17.00
2018-02-24T11:33:07.153Z,16.60
2018-02-24T11:34:07.116Z,15.50
2018-02-24T11:35:08.917Z,16.50
2018-02-24T11:36:07.065Z,18.40
2018-02-24T11:37:07.032Z,18.10
2018-02-24T11:38:06.948Z,17.60
2018-02-24T11:39:06.879Z,17.50
2018-02-24T11:40:06.843Z,17.00
2018-02-24T11:41:06.803Z,17.10
2018-02-24T11:42:07.419Z,17.40
2018-02-24T11:43:06.747Z,16.70
2018-02-24T11:44:06.694Z,17.50
2018-02-24T11:45:06.658Z,18.30
2018-02-24T11:46:06.622Z,17.70
2018-02-24T11:47:06.616Z,17.40
2018-02-24T11:48:06.550Z,16.20
2018-02-24T11:49:06.534Z,18.10
2018-02-24T11:50:07.465Z,17.20
2018-02-24T11:51:06.436Z,17.40
2018-02-24T11:52:06.397Z,17.00
2018-02-24T11:53:06.399Z,17.80
2018-02-24T11:54:06.329Z,17.00
2018-02-24T11:55:06.291Z,17.70
2018-02-24T11:56:06.258Z,18.60
2018-02-24T11:57:06.213Z,17.40
2018-02-24T11:58:06.183Z,16.30
2018-02-24T11:59:06.175Z,17.80
2018-02-24T12:00:06.111Z,18.10
2018-02-24T12:01:06.074Z,17.20
2018-02-24T12:02:06.036Z,16.80
2018-02-24T12:03:06.003Z,17.50
2018-02-24T12:04:06.031Z,17.00
2018-02-24T12:05:05.924Z,16.80
2018-02-24T12:06:05.891Z,16.90
2018-02-24T12:07:05.852Z,17.10
2018-02-24T12:08:05.818Z,16.30
2018-02-24T12:09:06.467Z,17.30
2018-02-24T12:10:05.741Z,17.50
2018-02-24T12:11:05.713Z,17.20
2018-02-24T12:12:05.668Z,17.80
2018-02-24T12:13:05.669Z,17.30
2018-02-24T12:14:05.595Z,16.40
2018-02-24T12:15:05.565Z,16.40
2018-02-24T12:16:05.526Z,16.10
2018-02-24T12:17:05.490Z,15.50
2018-02-24T12:18:05.484Z,16.70
2018-02-24T12:19:05.531Z,16.20
2018-02-24T12:20:05.387Z,16.40
2018-02-24T12:21:05.388Z,16.10
2018-02-24T12:22:05.307Z,15.70
2018-02-24T12:23:05.269Z,16.90
2018-02-24T12:24:05.236Z,16.10
2018-02-24T12:25:05.200Z,15.70
2018-02-24T12:26:05.161Z,15.70
2018-02-24T12:27:05.145Z,16.70
2018-02-24T12:28:05.092Z,16.90
2018-02-24T12:29:05.055Z,15.90
2018-02-24T12:30:05.448Z,15.60
2018-02-24T12:31:04.988Z,16.20
2018-02-24T12:32:04.972Z,16.20
2018-02-24T12:33:04.911Z,16.00
2018-02-24T12:34:04.876Z,16.10
2018-02-24T12:35:05.428Z,16.00
2018-02-24T12:36:04.795Z,16.00
2018-02-24T12:37:04.767Z,14.90
2018-02-24T12:38:04.745Z,16.10
2018-02-24T12:39:04.690Z,15.20
2018-02-24T12:40:05.429Z,16.20
2018-02-24T12:41:04.614Z,16.40
2018-02-24T12:42:04.582Z,16.30
2018-02-24T12:43:04.568Z,16.60
2018-02-24T12:44:04.505Z,15.10
2018-02-24T12:45:04.483Z,16.30
2018-02-24T12:46:04.438Z,14.80
2018-02-24T12:47:04.402Z,15.20
2018-02-24T12:48:04.364Z,16.00
2018-02-24T12:49:04.349Z,16.20
2018-02-24T12:50:04.287Z,15.70
2018-02-24T12:51:04.258Z,15.30
2018-02-24T12:52:04.219Z,15.50
2018-02-24T12:53:04.184Z,15.40
2018-02-24T12:54:04.174Z,16.30